sensor_id;sensor_type;location;lat;lon;timestamp;P1;durP1;ratioP1;P2;durP2;ratioP2
28958;SDS011;16066;0.000;0.000;2023-04-03T00:01:33;7.63;;;5.70;;
28958;SDS011;16066;0.000;0.000;2023-04-03T00:04:00;8.50;;;6.13;;
28958;SDS011;16066;0.000;0.000;2023-04-03T00:06:25;7.30;;;5.67;;
28958;SDS011;16066;0.000;0.000;2023-04-03T00:08:51;7.33;;;5.53;;
28958;SDS011;16066;0.000;0.000;2023-04-03T00:11:17;8.43;;;6.30;;
28958;SDS011;16066;0.000;0.000;2023-04-03T00:13:43;7.70;;;5.77;;
28958;SDS011;16066;0.000;0.000;2023-04-03T00:16:10;7.93;;;5.50;;
28958;SDS011;16066;0.000;0.000;2023-04-03T00:18:36;8.37;;;5.70;;
28958;SDS011;16066;0.000;0.000;2023-04-03T00:21:03;7.50;;;5.77;;
28958;SDS011;16066;0.000;0.000;2023-04-03T00:23:30;6.70;;;5.70;;
28958;SDS011;16066;0.000;0.000;2023-04-03T00:25:56;7.23;;;5.60;;
28958;SDS011;16066;0.000;0.000;2023-04-03T00:28:21;9.10;;;6.17;;
28958;SDS011;16066;0.000;0.000;2023-04-03T00:30:50;6.83;;;5.70;;
28958;SDS011;16066;0.000;0.000;2023-04-03T00:33:16;7.63;;;5.80;;
28958;SDS011;16066;0.000;0.000;2023-04-03T00:35:42;8.43;;;6.80;;
28958;SDS011;16066;0.000;0.000;2023-04-03T00:38:08;8.43;;;5.70;;
28958;SDS011;16066;0.000;0.000;2023-04-03T00:40:34;7.97;;;6.30;;
28958;SDS011;16066;0.000;0.000;2023-04-03T00:43:02;8.20;;;5.60;;
28958;SDS011;16066;0.000;0.000;2023-04-03T00:45:40;8.20;;;6.20;;
28958;SDS011;16066;0.000;0.000;2023-04-03T00:48:09;8.50;;;6.70;;
28958;SDS011;16066;0.000;0.000;2023-04-03T00:50:39;7.00;;;5.27;;
28958;SDS011;16066;0.000;0.000;2023-04-03T00:53:07;6.80;;;4.93;;
28958;SDS011;16066;0.000;0.000;2023-04-03T00:55:36;7.67;;;5.53;;
28958;SDS011;16066;0.000;0.000;2023-04-03T00:58:03;8.40;;;5.57;;
28958;SDS011;16066;0.000;0.000;2023-04-03T01:00:31;9.43;;;6.63;;
28958;SDS011;16066;0.000;0.000;2023-04-03T01:02:57;10.57;;;6.70;;
28958;SDS011;16066;0.000;0.000;2023-04-03T01:05:23;7.90;;;5.60;;
28958;SDS011;16066;0.000;0.000;2023-04-03T01:07:49;9.03;;;6.53;;
28958;SDS011;16066;0.000;0.000;2023-04-03T01:10:16;8.00;;;6.30;;
28958;SDS011;16066;0.000;0.000;2023-04-03T01:12:43;9.23;;;6.80;;
28958;SDS011;16066;0.000;0.000;2023-04-03T01:15:20;9.73;;;6.57;;
28958;SDS011;16066;0.000;0.000;2023-04-03T01:17:57;7.27;;;5.50;;
28958;SDS011;16066;0.000;0.000;2023-04-03T01:23:06;8.20;;;6.20;;
28958;SDS011;16066;0.000;0.000;2023-04-03T01:28:12;8.30;;;6.20;;
28958;SDS011;16066;0.000;0.000;2023-04-03T01:33:21;9.50;;;6.03;;
28958;SDS011;16066;0.000;0.000;2023-04-03T01:35:47;8.60;;;6.90;;
28958;SDS011;16066;0.000;0.000;2023-04-03T01:38:12;9.17;;;6.00;;
28958;SDS011;16066;0.000;0.000;2023-04-03T01:40:38;8.17;;;6.13;;
28958;SDS011;16066;0.000;0.000;2023-04-03T01:43:04;7.13;;;5.40;;
28958;SDS011;16066;0.000;0.000;2023-04-03T01:45:30;7.90;;;6.37;;
28958;SDS011;16066;0.000;0.000;2023-04-03T01:47:55;8.00;;;6.10;;
28958;SDS011;16066;0.000;0.000;2023-04-03T01:50:21;8.27;;;6.20;;
28958;SDS011;16066;0.000;0.000;2023-04-03T01:52:47;8.80;;;6.23;;
28958;SDS011;16066;0.000;0.000;2023-04-03T01:55:12;8.67;;;6.90;;
28958;SDS011;16066;0.000;0.000;2023-04-03T01:57:38;8.83;;;6.70;;
28958;SDS011;16066;0.000;0.000;2023-04-03T02:00:03;11.00;;;7.47;;
28958;SDS011;16066;0.000;0.000;2023-04-03T02:02:29;8.87;;;6.53;;
28958;SDS011;16066;0.000;0.000;2023-04-03T02:04:55;9.47;;;7.00;;
28958;SDS011;16066;0.000;0.000;2023-04-03T02:07:21;10.30;;;6.83;;
28958;SDS011;16066;0.000;0.000;2023-04-03T02:09:46;9.23;;;7.20;;
28958;SDS011;16066;0.000;0.000;2023-04-03T02:12:12;7.97;;;6.30;;
28958;SDS011;16066;0.000;0.000;2023-04-03T02:14:37;8.90;;;6.43;;
28958;SDS011;16066;0.000;0.000;2023-04-03T02:17:03;10.70;;;7.20;;
28958;SDS011;16066;0.000;0.000;2023-04-03T02:19:33;9.07;;;7.57;;
28958;SDS011;16066;0.000;0.000;2023-04-03T02:22:00;9.60;;;6.90;;
28958;SDS011;16066;0.000;0.000;2023-04-03T02:24:26;9.07;;;6.70;;
28958;SDS011;16066;0.000;0.000;2023-04-03T02:26:52;11.30;;;7.23;;
28958;SDS011;16066;0.000;0.000;2023-04-03T02:29:18;11.07;;;7.47;;
28958;SDS011;16066;0.000;0.000;2023-04-03T02:31:44;11.13;;;7.93;;
28958;SDS011;16066;0.000;0.000;2023-04-03T02:34:10;11.03;;;7.40;;
28958;SDS011;16066;0.000;0.000;2023-04-03T02:36:35;10.47;;;7.80;;
28958;SDS011;16066;0.000;0.000;2023-04-03T02:39:01;10.27;;;7.17;;
28958;SDS011;16066;0.000;0.000;2023-04-03T02:41:27;9.13;;;7.00;;
28958;SDS011;16066;0.000;0.000;2023-04-03T02:43:59;11.27;;;8.47;;
28958;SDS011;16066;0.000;0.000;2023-04-03T02:46:25;10.50;;;7.73;;
28958;SDS011;16066;0.000;0.000;2023-04-03T02:48:51;11.50;;;8.20;;
28958;SDS011;16066;0.000;0.000;2023-04-03T02:51:16;10.40;;;8.00;;
28958;SDS011;16066;0.000;0.000;2023-04-03T02:53:42;10.63;;;8.13;;
28958;SDS011;16066;0.000;0.000;2023-04-03T02:56:08;11.27;;;8.40;;
28958;SDS011;16066;0.000;0.000;2023-04-03T02:58:33;11.50;;;8.40;;
28958;SDS011;16066;0.000;0.000;2023-04-03T03:00:59;11.37;;;7.90;;
28958;SDS011;16066;0.000;0.000;2023-04-03T03:03:25;11.33;;;8.10;;
28958;SDS011;16066;0.000;0.000;2023-04-03T03:05:59;11.47;;;8.50;;
28958;SDS011;16066;0.000;0.000;2023-04-03T03:08:26;10.70;;;7.87;;
28958;SDS011;16066;0.000;0.000;2023-04-03T03:10:51;11.43;;;8.20;;
28958;SDS011;16066;0.000;0.000;2023-04-03T03:13:17;10.37;;;7.77;;
28958;SDS011;16066;0.000;0.000;2023-04-03T03:15:42;12.30;;;8.53;;
28958;SDS011;16066;0.000;0.000;2023-04-03T03:18:08;11.20;;;7.97;;
28958;SDS011;16066;0.000;0.000;2023-04-03T03:20:33;14.30;;;7.80;;
28958;SDS011;16066;0.000;0.000;2023-04-03T03:22:59;10.40;;;7.47;;
28958;SDS011;16066;0.000;0.000;2023-04-03T03:25:24;9.73;;;7.23;;
28958;SDS011;16066;0.000;0.000;2023-04-03T03:27:50;11.30;;;8.43;;
28958;SDS011;16066;0.000;0.000;2023-04-03T03:30:15;9.80;;;7.60;;
28958;SDS011;16066;0.000;0.000;2023-04-03T03:32:41;11.70;;;7.90;;
28958;SDS011;16066;0.000;0.000;2023-04-03T03:35:07;12.00;;;7.50;;
28958;SDS011;16066;0.000;0.000;2023-04-03T03:37:32;11.90;;;8.03;;
28958;SDS011;16066;0.000;0.000;2023-04-03T03:39:58;12.07;;;8.73;;
28958;SDS011;16066;0.000;0.000;2023-04-03T03:42:23;11.57;;;7.47;;
28958;SDS011;16066;0.000;0.000;2023-04-03T03:44:49;11.73;;;8.37;;
28958;SDS011;16066;0.000;0.000;2023-04-03T03:47:14;12.07;;;8.50;;
28958;SDS011;16066;0.000;0.000;2023-04-03T03:49:40;10.83;;;7.97;;
28958;SDS011;16066;0.000;0.000;2023-04-03T03:52:06;10.90;;;8.30;;
28958;SDS011;16066;0.000;0.000;2023-04-03T03:54:31;12.30;;;8.93;;
28958;SDS011;16066;0.000;0.000;2023-04-03T03:56:57;10.90;;;8.00;;
28958;SDS011;16066;0.000;0.000;2023-04-03T03:59:22;12.20;;;8.40;;
28958;SDS011;16066;0.000;0.000;2023-04-03T04:01:48;9.60;;;7.37;;
28958;SDS011;16066;0.000;0.000;2023-04-03T04:04:13;11.93;;;8.33;;
28958;SDS011;16066;0.000;0.000;2023-04-03T04:06:39;10.37;;;7.70;;
28958;SDS011;16066;0.000;0.000;2023-04-03T04:09:04;10.63;;;7.93;;
28958;SDS011;16066;0.000;0.000;2023-04-03T04:11:30;11.73;;;7.97;;
28958;SDS011;16066;0.000;0.000;2023-04-03T04:13:58;11.00;;;8.33;;
28958;SDS011;16066;0.000;0.000;2023-04-03T04:16:23;10.70;;;8.40;;
28958;SDS011;16066;0.000;0.000;2023-04-03T04:18:49;11.80;;;8.33;;
28958;SDS011;16066;0.000;0.000;2023-04-03T04:21:14;13.23;;;8.30;;
28958;SDS011;16066;0.000;0.000;2023-04-03T04:23:40;12.40;;;8.50;;
28958;SDS011;16066;0.000;0.000;2023-04-03T04:26:05;13.37;;;8.40;;
28958;SDS011;16066;0.000;0.000;2023-04-03T04:28:31;12.40;;;8.57;;
28958;SDS011;16066;0.000;0.000;2023-04-03T04:30:56;11.47;;;7.77;;
28958;SDS011;16066;0.000;0.000;2023-04-03T04:33:22;11.80;;;8.23;;
28958;SDS011;16066;0.000;0.000;2023-04-03T04:35:47;11.20;;;7.70;;
28958;SDS011;16066;0.000;0.000;2023-04-03T04:38:13;11.63;;;8.03;;
28958;SDS011;16066;0.000;0.000;2023-04-03T04:40:39;11.10;;;8.03;;
28958;SDS011;16066;0.000;0.000;2023-04-03T04:43:05;10.13;;;7.53;;
28958;SDS011;16066;0.000;0.000;2023-04-03T04:45:31;10.90;;;7.97;;
28958;SDS011;16066;0.000;0.000;2023-04-03T04:47:56;10.40;;;7.80;;
28958;SDS011;16066;0.000;0.000;2023-04-03T04:50:22;13.50;;;8.83;;
28958;SDS011;16066;0.000;0.000;2023-04-03T04:52:47;11.20;;;7.70;;
28958;SDS011;16066;0.000;0.000;2023-04-03T04:55:13;12.00;;;8.87;;
28958;SDS011;16066;0.000;0.000;2023-04-03T04:57:38;10.10;;;7.67;;
28958;SDS011;16066;0.000;0.000;2023-04-03T05:00:05;12.90;;;8.33;;
28958;SDS011;16066;0.000;0.000;2023-04-03T05:02:30;12.30;;;8.23;;
28958;SDS011;16066;0.000;0.000;2023-04-03T05:04:56;12.07;;;8.80;;
28958;SDS011;16066;0.000;0.000;2023-04-03T05:07:22;12.00;;;8.33;;
28958;SDS011;16066;0.000;0.000;2023-04-03T05:09:47;12.13;;;8.90;;
28958;SDS011;16066;0.000;0.000;2023-04-03T05:12:13;12.20;;;8.97;;
28958;SDS011;16066;0.000;0.000;2023-04-03T05:14:38;12.73;;;7.90;;
28958;SDS011;16066;0.000;0.000;2023-04-03T05:17:04;12.40;;;8.70;;
28958;SDS011;16066;0.000;0.000;2023-04-03T05:19:29;11.17;;;8.50;;
28958;SDS011;16066;0.000;0.000;2023-04-03T05:21:55;11.77;;;8.03;;
28958;SDS011;16066;0.000;0.000;2023-04-03T05:24:20;12.37;;;7.90;;
28958;SDS011;16066;0.000;0.000;2023-04-03T05:26:46;11.53;;;8.67;;
28958;SDS011;16066;0.000;0.000;2023-04-03T05:29:11;13.83;;;8.83;;
28958;SDS011;16066;0.000;0.000;2023-04-03T05:31:37;12.63;;;8.30;;
28958;SDS011;16066;0.000;0.000;2023-04-03T05:34:03;11.47;;;8.40;;
28958;SDS011;16066;0.000;0.000;2023-04-03T05:36:28;12.53;;;8.73;;
28958;SDS011;16066;0.000;0.000;2023-04-03T05:38:54;10.23;;;8.00;;
28958;SDS011;16066;0.000;0.000;2023-04-03T05:41:21;10.80;;;8.10;;
28958;SDS011;16066;0.000;0.000;2023-04-03T05:43:47;16.30;;;8.87;;
28958;SDS011;16066;0.000;0.000;2023-04-03T05:46:14;12.40;;;8.67;;
28958;SDS011;16066;0.000;0.000;2023-04-03T05:48:41;12.40;;;8.03;;
28958;SDS011;16066;0.000;0.000;2023-04-03T05:51:09;9.73;;;7.87;;
28958;SDS011;16066;0.000;0.000;2023-04-03T05:53:40;13.70;;;7.97;;
28958;SDS011;16066;0.000;0.000;2023-04-03T05:56:07;11.90;;;8.07;;
28958;SDS011;16066;0.000;0.000;2023-04-03T05:58:32;12.07;;;8.50;;
28958;SDS011;16066;0.000;0.000;2023-04-03T06:00:58;13.20;;;8.30;;
28958;SDS011;16066;0.000;0.000;2023-04-03T06:03:23;9.80;;;7.20;;
28958;SDS011;16066;0.000;0.000;2023-04-03T06:05:50;10.57;;;7.70;;
28958;SDS011;16066;0.000;0.000;2023-04-03T06:08:15;10.70;;;7.90;;
28958;SDS011;16066;0.000;0.000;2023-04-03T06:10:41;12.57;;;7.90;;
28958;SDS011;16066;0.000;0.000;2023-04-03T06:13:06;11.80;;;8.27;;
28958;SDS011;16066;0.000;0.000;2023-04-03T06:15:32;13.20;;;8.40;;
28958;SDS011;16066;0.000;0.000;2023-04-03T06:17:59;11.83;;;7.83;;
28958;SDS011;16066;0.000;0.000;2023-04-03T06:20:25;10.80;;;7.77;;
28958;SDS011;16066;0.000;0.000;2023-04-03T06:22:50;12.27;;;8.10;;
28958;SDS011;16066;0.000;0.000;2023-04-03T06:25:16;10.30;;;7.37;;
28958;SDS011;16066;0.000;0.000;2023-04-03T06:27:43;13.53;;;7.50;;
28958;SDS011;16066;0.000;0.000;2023-04-03T06:30:09;12.93;;;7.53;;
28958;SDS011;16066;0.000;0.000;2023-04-03T06:32:36;12.17;;;7.80;;
28958;SDS011;16066;0.000;0.000;2023-04-03T06:35:02;15.00;;;8.37;;
28958;SDS011;16066;0.000;0.000;2023-04-03T06:37:28;14.30;;;8.10;;
28958;SDS011;16066;0.000;0.000;2023-04-03T06:39:55;12.50;;;8.23;;
28958;SDS011;16066;0.000;0.000;2023-04-03T06:42:21;14.87;;;7.53;;
28958;SDS011;16066;0.000;0.000;2023-04-03T06:44:47;11.53;;;7.90;;
28958;SDS011;16066;0.000;0.000;2023-04-03T06:47:13;12.73;;;8.17;;
28958;SDS011;16066;0.000;0.000;2023-04-03T06:49:39;10.43;;;7.60;;
28958;SDS011;16066;0.000;0.000;2023-04-03T06:52:06;12.30;;;7.77;;
28958;SDS011;16066;0.000;0.000;2023-04-03T06:54:32;9.10;;;6.50;;
28958;SDS011;16066;0.000;0.000;2023-04-03T06:56:57;11.10;;;6.87;;
28958;SDS011;16066;0.000;0.000;2023-04-03T06:59:23;9.60;;;7.10;;
28958;SDS011;16066;0.000;0.000;2023-04-03T07:01:49;12.90;;;6.43;;
28958;SDS011;16066;0.000;0.000;2023-04-03T07:04:15;9.17;;;6.57;;
28958;SDS011;16066;0.000;0.000;2023-04-03T07:06:41;16.93;;;9.37;;
28958;SDS011;16066;0.000;0.000;2023-04-03T07:09:07;11.90;;;8.10;;
28958;SDS011;16066;0.000;0.000;2023-04-03T07:11:34;11.93;;;7.90;;
28958;SDS011;16066;0.000;0.000;2023-04-03T07:14:01;15.03;;;9.10;;
28958;SDS011;16066;0.000;0.000;2023-04-03T07:16:26;13.23;;;9.00;;
28958;SDS011;16066;0.000;0.000;2023-04-03T07:18:52;11.67;;;8.27;;
28958;SDS011;16066;0.000;0.000;2023-04-03T07:21:17;11.57;;;8.27;;
28958;SDS011;16066;0.000;0.000;2023-04-03T07:23:43;10.57;;;8.30;;
28958;SDS011;16066;0.000;0.000;2023-04-03T07:26:08;16.10;;;9.27;;
28958;SDS011;16066;0.000;0.000;2023-04-03T07:28:34;13.43;;;8.70;;
28958;SDS011;16066;0.000;0.000;2023-04-03T07:31:02;14.00;;;9.70;;
28958;SDS011;16066;0.000;0.000;2023-04-03T07:33:31;10.50;;;7.80;;
28958;SDS011;16066;0.000;0.000;2023-04-03T07:35:57;10.90;;;7.47;;
28958;SDS011;16066;0.000;0.000;2023-04-03T07:38:23;12.53;;;8.30;;
28958;SDS011;16066;0.000;0.000;2023-04-03T07:40:50;10.60;;;8.03;;
28958;SDS011;16066;0.000;0.000;2023-04-03T07:43:18;11.37;;;7.47;;
28958;SDS011;16066;0.000;0.000;2023-04-03T07:45:45;10.70;;;7.37;;
28958;SDS011;16066;0.000;0.000;2023-04-03T07:48:12;11.00;;;7.60;;
28958;SDS011;16066;0.000;0.000;2023-04-03T07:50:41;11.93;;;7.63;;
28958;SDS011;16066;0.000;0.000;2023-04-03T07:53:06;9.93;;;7.10;;
28958;SDS011;16066;0.000;0.000;2023-04-03T07:55:32;11.10;;;7.80;;
28958;SDS011;16066;0.000;0.000;2023-04-03T07:57:58;9.50;;;7.13;;
28958;SDS011;16066;0.000;0.000;2023-04-03T08:00:24;12.03;;;8.10;;
28958;SDS011;16066;0.000;0.000;2023-04-03T08:02:50;11.20;;;7.40;;
28958;SDS011;16066;0.000;0.000;2023-04-03T08:05:19;13.33;;;7.93;;
28958;SDS011;16066;0.000;0.000;2023-04-03T08:07:46;11.83;;;8.17;;
28958;SDS011;16066;0.000;0.000;2023-04-03T08:10:12;12.23;;;7.83;;
28958;SDS011;16066;0.000;0.000;2023-04-03T08:12:38;10.20;;;6.97;;
28958;SDS011;16066;0.000;0.000;2023-04-03T08:15:04;8.80;;;7.10;;
28958;SDS011;16066;0.000;0.000;2023-04-03T08:17:30;11.40;;;7.63;;
28958;SDS011;16066;0.000;0.000;2023-04-03T08:19:55;11.10;;;7.10;;
28958;SDS011;16066;0.000;0.000;2023-04-03T08:22:21;9.33;;;7.00;;
28958;SDS011;16066;0.000;0.000;2023-04-03T08:24:46;10.27;;;7.47;;
28958;SDS011;16066;0.000;0.000;2023-04-03T08:27:12;12.43;;;6.97;;
28958;SDS011;16066;0.000;0.000;2023-04-03T08:29:38;11.03;;;6.90;;
28958;SDS011;16066;0.000;0.000;2023-04-03T08:32:04;11.07;;;7.60;;
28958;SDS011;16066;0.000;0.000;2023-04-03T08:34:30;14.90;;;9.97;;
28958;SDS011;16066;0.000;0.000;2023-04-03T08:36:59;80.53;;;41.63;;
28958;SDS011;16066;0.000;0.000;2023-04-03T08:39:25;707.13;;;404.73;;
28958;SDS011;16066;0.000;0.000;2023-04-03T08:41:51;1669.80;;;889.20;;
28958;SDS011;16066;0.000;0.000;2023-04-03T08:44:23;1122.27;;;684.20;;
28958;SDS011;16066;0.000;0.000;2023-04-03T08:49:39;417.23;;;205.00;;
28958;SDS011;16066;0.000;0.000;2023-04-03T08:52:20;254.53;;;121.70;;
28958;SDS011;16066;0.000;0.000;2023-04-03T08:55:10;181.33;;;82.80;;
28958;SDS011;16066;0.000;0.000;2023-04-03T08:57:57;275.40;;;129.40;;
28958;SDS011;16066;0.000;0.000;2023-04-03T09:00:27;295.77;;;133.73;;
28958;SDS011;16066;0.000;0.000;2023-04-03T09:02:57;370.43;;;165.53;;
28958;SDS011;16066;0.000;0.000;2023-04-03T09:05:35;260.70;;;128.20;;
28958;SDS011;16066;0.000;0.000;2023-04-03T09:08:24;238.27;;;119.37;;
28958;SDS011;16066;0.000;0.000;2023-04-03T09:10:59;245.43;;;113.67;;
28958;SDS011;16066;0.000;0.000;2023-04-03T09:13:39;238.13;;;113.13;;
28958;SDS011;16066;0.000;0.000;2023-04-03T09:16:20;243.60;;;115.80;;
28958;SDS011;16066;0.000;0.000;2023-04-03T09:18:52;248.23;;;113.67;;
28958;SDS011;16066;0.000;0.000;2023-04-03T09:21:42;239.07;;;110.50;;
28958;SDS011;16066;0.000;0.000;2023-04-03T09:24:09;224.00;;;108.90;;
28958;SDS011;16066;0.000;0.000;2023-04-03T09:26:41;217.33;;;108.70;;
28958;SDS011;16066;0.000;0.000;2023-04-03T09:29:20;224.60;;;103.13;;
28958;SDS011;16066;0.000;0.000;2023-04-03T09:31:48;218.27;;;103.10;;
28958;SDS011;16066;0.000;0.000;2023-04-03T09:34:30;199.23;;;100.83;;
28958;SDS011;16066;0.000;0.000;2023-04-03T09:37:00;211.93;;;100.30;;
28958;SDS011;16066;0.000;0.000;2023-04-03T09:39:31;209.83;;;98.20;;
28958;SDS011;16066;0.000;0.000;2023-04-03T09:42:15;189.10;;;94.73;;
28958;SDS011;16066;0.000;0.000;2023-04-03T09:44:48;189.00;;;95.10;;
28958;SDS011;16066;0.000;0.000;2023-04-03T09:47:30;191.47;;;92.70;;
28958;SDS011;16066;0.000;0.000;2023-04-03T09:50:21;197.33;;;92.87;;
28958;SDS011;16066;0.000;0.000;2023-04-03T09:52:48;176.30;;;91.93;;
28958;SDS011;16066;0.000;0.000;2023-04-03T09:57:42;175.60;;;89.80;;
28958;SDS011;16066;0.000;0.000;2023-04-03T10:00:53;176.37;;;91.57;;
28958;SDS011;16066;0.000;0.000;2023-04-03T10:03:01;162.97;;;84.40;;
28958;SDS011;16066;0.000;0.000;2023-04-03T10:08:14;165.60;;;84.60;;
28958;SDS011;16066;0.000;0.000;2023-04-03T10:10:46;179.60;;;81.60;;
28958;SDS011;16066;0.000;0.000;2023-04-03T10:13:20;165.03;;;82.70;;
28958;SDS011;16066;0.000;0.000;2023-04-03T10:15:56;154.87;;;79.50;;
28958;SDS011;16066;0.000;0.000;2023-04-03T10:18:48;154.13;;;78.27;;
28958;SDS011;16066;0.000;0.000;2023-04-03T10:21:33;149.10;;;79.73;;
28958;SDS011;16066;0.000;0.000;2023-04-03T10:24:11;155.83;;;76.50;;
28958;SDS011;16066;0.000;0.000;2023-04-03T10:26:58;147.33;;;74.53;;
28958;SDS011;16066;0.000;0.000;2023-04-03T10:35:33;136.70;;;72.27;;
28958;SDS011;16066;0.000;0.000;2023-04-03T10:46:24;132.47;;;67.23;;
28958;SDS011;16066;0.000;0.000;2023-04-03T10:51:30;123.07;;;65.10;;
28958;SDS011;16066;0.000;0.000;2023-04-03T10:54:11;125.60;;;64.10;;
28958;SDS011;16066;0.000;0.000;2023-04-03T10:56:45;120.47;;;64.40;;
28958;SDS011;16066;0.000;0.000;2023-04-03T11:02:53;104.30;;;56.93;;
28958;SDS011;16066;0.000;0.000;2023-04-03T11:05:36;105.83;;;55.90;;
28958;SDS011;16066;0.000;0.000;2023-04-03T11:08:12;96.03;;;54.40;;
28958;SDS011;16066;0.000;0.000;2023-04-03T11:10:42;108.80;;;53.97;;
28958;SDS011;16066;0.000;0.000;2023-04-03T11:16:30;96.27;;;49.17;;
28958;SDS011;16066;0.000;0.000;2023-04-03T11:19:01;88.90;;;47.47;;
28958;SDS011;16066;0.000;0.000;2023-04-03T11:21:33;91.33;;;47.90;;
28958;SDS011;16066;0.000;0.000;2023-04-03T11:24:05;87.37;;;47.53;;
28958;SDS011;16066;0.000;0.000;2023-04-03T11:26:38;78.40;;;43.50;;
28958;SDS011;16066;0.000;0.000;2023-04-03T11:29:08;86.80;;;43.57;;
28958;SDS011;16066;0.000;0.000;2023-04-03T11:31:46;74.27;;;37.63;;
28958;SDS011;16066;0.000;0.000;2023-04-03T11:37:25;66.53;;;36.90;;
28958;SDS011;16066;0.000;0.000;2023-04-03T11:40:06;66.33;;;34.50;;
28958;SDS011;16066;0.000;0.000;2023-04-03T11:42:55;60.53;;;34.23;;
28958;SDS011;16066;0.000;0.000;2023-04-03T11:45:34;60.40;;;33.73;;
28958;SDS011;16066;0.000;0.000;2023-04-03T12:08:28;43.50;;;23.67;;
28958;SDS011;16066;0.000;0.000;2023-04-03T12:29:18;30.70;;;17.50;;
28958;SDS011;16066;0.000;0.000;2023-04-03T12:31:55;29.97;;;16.30;;
28958;SDS011;16066;0.000;0.000;2023-04-03T12:43:39;26.33;;;12.90;;
28958;SDS011;16066;0.000;0.000;2023-04-03T12:46:26;18.60;;;11.60;;
28958;SDS011;16066;0.000;0.000;2023-04-03T12:49:00;25.50;;;12.90;;
28958;SDS011;16066;0.000;0.000;2023-04-03T12:51:42;20.73;;;11.00;;
28958;SDS011;16066;0.000;0.000;2023-04-03T12:54:18;17.03;;;10.97;;
28958;SDS011;16066;0.000;0.000;2023-04-03T12:56:47;22.20;;;12.10;;
28958;SDS011;16066;0.000;0.000;2023-04-03T13:01:58;15.83;;;10.40;;
28958;SDS011;16066;0.000;0.000;2023-04-03T13:04:28;17.97;;;10.00;;
28958;SDS011;16066;0.000;0.000;2023-04-03T13:06:55;17.10;;;9.20;;
28958;SDS011;16066;0.000;0.000;2023-04-03T13:09:28;16.77;;;8.87;;
28958;SDS011;16066;0.000;0.000;2023-04-03T13:14:37;17.60;;;9.73;;
28958;SDS011;16066;0.000;0.000;2023-04-03T13:17:04;14.67;;;8.43;;
28958;SDS011;16066;0.000;0.000;2023-04-03T13:19:37;17.30;;;8.33;;
28958;SDS011;16066;0.000;0.000;2023-04-03T13:22:04;13.57;;;7.83;;
28958;SDS011;16066;0.000;0.000;2023-04-03T13:24:33;14.53;;;7.93;;
28958;SDS011;16066;0.000;0.000;2023-04-03T13:27:02;14.77;;;8.40;;
28958;SDS011;16066;0.000;0.000;2023-04-03T13:29:31;11.20;;;7.17;;
28958;SDS011;16066;0.000;0.000;2023-04-03T13:31:59;14.67;;;7.50;;
28958;SDS011;16066;0.000;0.000;2023-04-03T13:34:27;11.07;;;7.90;;
28958;SDS011;16066;0.000;0.000;2023-04-03T13:36:57;8.80;;;6.80;;
28958;SDS011;16066;0.000;0.000;2023-04-03T13:39:27;16.03;;;7.20;;
28958;SDS011;16066;0.000;0.000;2023-04-03T13:41:55;13.13;;;8.17;;
28958;SDS011;16066;0.000;0.000;2023-04-03T13:49:22;11.17;;;7.00;;
28958;SDS011;16066;0.000;0.000;2023-04-03T13:52:21;10.10;;;6.97;;
28958;SDS011;16066;0.000;0.000;2023-04-03T13:54:53;10.50;;;6.40;;
28958;SDS011;16066;0.000;0.000;2023-04-03T13:57:23;14.73;;;6.63;;
28958;SDS011;16066;0.000;0.000;2023-04-03T13:59:49;10.10;;;6.90;;
28958;SDS011;16066;0.000;0.000;2023-04-03T14:04:49;9.10;;;6.03;;
28958;SDS011;16066;0.000;0.000;2023-04-03T14:07:23;17.67;;;7.90;;
28958;SDS011;16066;0.000;0.000;2023-04-03T14:09:49;10.47;;;5.93;;
28958;SDS011;16066;0.000;0.000;2023-04-03T14:12:16;9.40;;;6.87;;
28958;SDS011;16066;0.000;0.000;2023-04-03T14:14:46;11.13;;;7.40;;
28958;SDS011;16066;0.000;0.000;2023-04-03T14:17:30;15.97;;;7.00;;
28958;SDS011;16066;0.000;0.000;2023-04-03T14:19:56;10.27;;;7.33;;
28958;SDS011;16066;0.000;0.000;2023-04-03T14:22:24;8.10;;;5.80;;
28958;SDS011;16066;0.000;0.000;2023-04-03T14:24:53;10.03;;;6.40;;
28958;SDS011;16066;0.000;0.000;2023-04-03T14:29:45;7.83;;;4.57;;
28958;SDS011;16066;0.000;0.000;2023-04-03T14:32:13;6.90;;;5.13;;
28958;SDS011;16066;0.000;0.000;2023-04-03T14:34:44;6.50;;;5.20;;
28958;SDS011;16066;0.000;0.000;2023-04-03T14:37:11;6.93;;;4.27;;
28958;SDS011;16066;0.000;0.000;2023-04-03T14:39:39;7.03;;;4.47;;
28958;SDS011;16066;0.000;0.000;2023-04-03T14:42:05;8.50;;;5.40;;
28958;SDS011;16066;0.000;0.000;2023-04-03T14:44:31;7.40;;;4.60;;
28958;SDS011;16066;0.000;0.000;2023-04-03T14:46:56;5.70;;;4.37;;
28958;SDS011;16066;0.000;0.000;2023-04-03T14:49:24;8.63;;;5.03;;
28958;SDS011;16066;0.000;0.000;2023-04-03T14:51:52;5.87;;;4.00;;
28958;SDS011;16066;0.000;0.000;2023-04-03T14:54:19;7.70;;;4.80;;
28958;SDS011;16066;0.000;0.000;2023-04-03T14:56:50;8.43;;;4.47;;
28958;SDS011;16066;0.000;0.000;2023-04-03T14:59:17;7.10;;;4.70;;
28958;SDS011;16066;0.000;0.000;2023-04-03T15:01:45;6.93;;;4.40;;
28958;SDS011;16066;0.000;0.000;2023-04-03T15:04:14;7.20;;;4.10;;
28958;SDS011;16066;0.000;0.000;2023-04-03T15:06:41;6.00;;;3.77;;
28958;SDS011;16066;0.000;0.000;2023-04-03T15:09:20;6.67;;;3.80;;
28958;SDS011;16066;0.000;0.000;2023-04-03T15:11:49;7.33;;;4.10;;
28958;SDS011;16066;0.000;0.000;2023-04-03T15:14:16;11.47;;;4.27;;
28958;SDS011;16066;0.000;0.000;2023-04-03T15:16:42;11.33;;;7.23;;
28958;SDS011;16066;0.000;0.000;2023-04-03T15:19:08;17.60;;;10.30;;
28958;SDS011;16066;0.000;0.000;2023-04-03T15:21:34;20.93;;;12.23;;
28958;SDS011;16066;0.000;0.000;2023-04-03T15:24:00;22.63;;;15.10;;
28958;SDS011;16066;0.000;0.000;2023-04-03T15:26:26;21.93;;;11.20;;
28958;SDS011;16066;0.000;0.000;2023-04-03T15:28:52;15.17;;;10.97;;
28958;SDS011;16066;0.000;0.000;2023-04-03T15:31:17;17.40;;;10.73;;
28958;SDS011;16066;0.000;0.000;2023-04-03T15:33:43;13.53;;;10.07;;
28958;SDS011;16066;0.000;0.000;2023-04-03T15:36:08;11.57;;;9.47;;
28958;SDS011;16066;0.000;0.000;2023-04-03T15:38:34;14.10;;;9.70;;
28958;SDS011;16066;0.000;0.000;2023-04-03T15:41:00;14.47;;;9.17;;
28958;SDS011;16066;0.000;0.000;2023-04-03T15:43:26;14.67;;;9.57;;
28958;SDS011;16066;0.000;0.000;2023-04-03T15:45:51;13.97;;;8.17;;
28958;SDS011;16066;0.000;0.000;2023-04-03T15:48:17;12.33;;;7.50;;
28958;SDS011;16066;0.000;0.000;2023-04-03T15:50:43;12.17;;;8.40;;
28958;SDS011;16066;0.000;0.000;2023-04-03T15:53:09;11.80;;;7.60;;
28958;SDS011;16066;0.000;0.000;2023-04-03T15:55:35;11.37;;;8.10;;
28958;SDS011;16066;0.000;0.000;2023-04-03T15:58:02;11.50;;;8.37;;
28958;SDS011;16066;0.000;0.000;2023-04-03T16:00:28;9.67;;;7.30;;
28958;SDS011;16066;0.000;0.000;2023-04-03T16:02:58;9.90;;;8.00;;
28958;SDS011;16066;0.000;0.000;2023-04-03T16:05:28;10.80;;;7.10;;
28958;SDS011;16066;0.000;0.000;2023-04-03T16:07:55;10.60;;;6.10;;
28958;SDS011;16066;0.000;0.000;2023-04-03T16:10:21;14.33;;;7.50;;
28958;SDS011;16066;0.000;0.000;2023-04-03T16:12:47;10.97;;;6.90;;
28958;SDS011;16066;0.000;0.000;2023-04-03T16:15:13;9.83;;;6.20;;
28958;SDS011;16066;0.000;0.000;2023-04-03T16:17:38;10.90;;;6.00;;
28958;SDS011;16066;0.000;0.000;2023-04-03T16:20:08;7.57;;;6.00;;
28958;SDS011;16066;0.000;0.000;2023-04-03T16:22:35;10.43;;;6.40;;
28958;SDS011;16066;0.000;0.000;2023-04-03T16:25:01;9.20;;;6.10;;
28958;SDS011;16066;0.000;0.000;2023-04-03T16:27:28;8.80;;;6.30;;
28958;SDS011;16066;0.000;0.000;2023-04-03T16:29:56;7.43;;;5.50;;
28958;SDS011;16066;0.000;0.000;2023-04-03T16:32:22;6.27;;;4.83;;
28958;SDS011;16066;0.000;0.000;2023-04-03T16:34:49;10.83;;;6.30;;
28958;SDS011;16066;0.000;0.000;2023-04-03T16:37:15;7.83;;;5.90;;
28958;SDS011;16066;0.000;0.000;2023-04-03T16:39:41;13.10;;;7.53;;